createdAt,value
2018-06-23T00:04:09.774Z,4.93
2018-06-23T00:09:07.133Z,5.50
2018-06-23T00:14:02.324Z,5.47
2018-06-23T00:18:57.635Z,5.20
2018-06-23T00:23:53.821Z,5.43
2018-06-23T00:28:49.004Z,5.13
2018-06-23T00:33:44.038Z,5.47
2018-06-23T00:38:38.954Z,5.63
2018-06-23T00:43:34.117Z,5.43
2018-06-23T00:48:28.770Z,4.50
2018-06-23T00:53:24.045Z,4.87
2018-06-23T00:58:18.968Z,5.13
2018-06-23T01:03:14.164Z,5.77
2018-06-23T01:08:08.748Z,5.57
2018-06-23T01:13:04.114Z,5.23
2018-06-23T01:17:58.729Z,5.03
2018-06-23T01:22:54.142Z,5.57
2018-06-23T01:27:49.095Z,5.90
2018-06-23T01:32:44.397Z,5.80
2018-06-23T01:37:39.709Z,6.17
2018-06-23T01:42:34.735Z,6.67
2018-06-23T01:47:30.362Z,5.47
2018-06-23T01:52:25.388Z,5.33
2018-06-23T01:57:20.276Z,6.70
2018-06-23T02:02:15.529Z,5.60
2018-06-23T02:07:10.844Z,6.20
2018-06-23T02:12:06.051Z,5.90
2018-06-23T02:17:06.410Z,5.63
2018-06-23T02:22:06.289Z,5.23
2018-06-23T02:27:06.123Z,5.57
2018-06-23T02:32:06.324Z,5.53
2018-06-23T02:37:01.501Z,5.03
2018-06-23T02:41:56.998Z,6.00
2018-06-23T02:46:52.051Z,6.10
2018-06-23T02:51:47.355Z,5.50
2018-06-23T02:56:42.825Z,5.87
2018-06-23T03:01:38.385Z,5.90
2018-06-23T03:06:34.512Z,5.47
2018-06-23T03:11:29.363Z,6.00
2018-06-23T03:16:24.744Z,5.00
2018-06-23T03:21:19.912Z,6.30
2018-06-23T03:26:16.512Z,6.43
2018-06-23T03:31:11.326Z,6.10
2018-06-23T03:36:06.947Z,6.57
2018-06-23T03:41:01.896Z,6.37
2018-06-23T03:45:56.710Z,6.37
2018-06-23T03:50:51.343Z,5.13
2018-06-23T03:55:45.874Z,5.00
2018-06-23T04:00:44.447Z,5.63
2018-06-23T04:05:45.123Z,5.67
2018-06-23T04:10:39.419Z,5.80
2018-06-23T04:15:34.553Z,5.80
2018-06-23T04:20:30.551Z,5.40
2018-06-23T04:25:26.954Z,5.53
2018-06-23T04:30:22.520Z,5.00
2018-06-23T04:35:17.310Z,4.70
2018-06-23T04:40:12.748Z,5.03
2018-06-23T04:45:08.069Z,5.60
2018-06-23T04:50:03.542Z,4.27
2018-06-23T04:54:58.898Z,4.70
2018-06-23T04:59:54.289Z,5.23
2018-06-23T05:04:51.361Z,4.33
2018-06-23T05:09:46.475Z,4.90
2018-06-23T05:14:41.700Z,4.57
2018-06-23T05:19:37.165Z,4.60
2018-06-23T05:24:32.855Z,4.07
2018-06-23T05:29:27.876Z,4.03
2018-06-23T05:34:22.523Z,4.40
2018-06-23T05:39:18.096Z,3.73
2018-06-23T05:44:12.818Z,5.33
2018-06-23T05:49:08.477Z,4.27
2018-06-23T05:54:04.397Z,4.77
2018-06-23T05:59:00.337Z,4.83
2018-06-23T06:03:56.031Z,3.80
2018-06-23T06:08:51.332Z,4.00
2018-06-23T06:13:46.569Z,4.80
2018-06-23T06:18:41.047Z,4.97
2018-06-23T06:23:35.399Z,4.63
2018-06-23T06:28:29.784Z,4.60
2018-06-23T06:33:24.275Z,3.77
2018-06-23T06:38:19.342Z,4.43
2018-06-23T06:43:13.939Z,4.80
2018-06-23T06:48:09.002Z,4.07
2018-06-23T06:53:03.540Z,3.83
2018-06-23T06:57:58.523Z,3.87
2018-06-23T07:02:53.261Z,4.17
2018-06-23T07:07:48.011Z,4.03
2018-06-23T07:12:42.678Z,4.13
2018-06-23T07:17:37.399Z,4.63
2018-06-23T07:22:32.407Z,4.10
2018-06-23T07:27:26.911Z,5.57
2018-06-23T07:32:21.615Z,3.80
2018-06-23T07:37:16.149Z,3.97
2018-06-23T07:42:10.923Z,3.70
2018-06-23T07:47:06.506Z,3.40
2018-06-23T07:52:00.862Z,3.67
2018-06-23T07:56:55.730Z,3.87
2018-06-23T08:01:50.027Z,3.87
2018-06-23T08:06:44.320Z,3.90
2018-06-23T08:11:39.482Z,5.10
2018-06-23T08:16:34.645Z,25.37
2018-06-23T08:21:29.780Z,12.90
2018-06-23T08:26:24.792Z,5.43
2018-06-23T08:31:19.763Z,4.43
2018-06-23T08:36:14.566Z,5.13
2018-06-23T08:41:09.057Z,3.80
2018-06-23T08:46:03.893Z,3.73
2018-06-23T08:50:58.501Z,3.53
2018-06-23T08:55:53.308Z,3.10
2018-06-23T09:00:48.475Z,2.93
2018-06-23T09:05:43.554Z,3.37
2018-06-23T09:10:38.123Z,3.10
2018-06-23T09:15:32.952Z,3.20
2018-06-23T09:20:28.079Z,3.20
2018-06-23T09:25:23.195Z,2.97
2018-06-23T09:30:18.408Z,3.30
2018-06-23T09:35:13.492Z,3.00
2018-06-23T09:40:09.009Z,2.87
2018-06-23T09:45:03.923Z,2.53
2018-06-23T09:49:58.747Z,2.73
2018-06-23T09:54:53.508Z,2.73
2018-06-23T09:59:48.504Z,2.70
2018-06-23T10:04:42.865Z,2.93
2018-06-23T10:09:37.595Z,3.20
2018-06-23T10:14:32.403Z,3.30
2018-06-23T10:19:27.009Z,3.20
2018-06-23T10:24:21.938Z,2.40
2018-06-23T10:29:16.699Z,2.30
2018-06-23T10:34:11.627Z,2.67
2018-06-23T10:39:10.602Z,2.73
2018-06-23T10:44:05.111Z,2.97
2018-06-23T10:48:59.586Z,2.60
2018-06-23T10:53:54.184Z,2.80
2018-06-23T10:58:48.696Z,2.67
2018-06-23T11:03:43.588Z,2.80
2018-06-23T11:08:38.423Z,2.90
2018-06-23T11:13:33.233Z,2.70
2018-06-23T11:18:27.942Z,2.53
2018-06-23T11:23:22.498Z,2.37
2018-06-23T11:28:17.269Z,2.13
2018-06-23T11:33:11.816Z,2.13
2018-06-23T11:38:06.837Z,2.37
2018-06-23T11:43:01.729Z,2.03
2018-06-23T11:47:56.622Z,2.10
2018-06-23T11:52:51.346Z,1.60
2018-06-23T11:57:46.140Z,2.10
2018-06-23T12:02:41.474Z,1.87
2018-06-23T12:07:36.257Z,1.93
2018-06-23T12:12:30.878Z,2.10
2018-06-23T12:17:25.514Z,2.37
2018-06-23T12:22:20.146Z,2.20
2018-06-23T12:27:14.832Z,2.53
2018-06-23T12:32:09.903Z,2.20
2018-06-23T12:37:04.816Z,2.10
2018-06-23T12:41:59.679Z,2.23
2018-06-23T12:46:54.510Z,2.13
2018-06-23T12:51:49.593Z,2.60
2018-06-23T12:56:44.192Z,2.53
2018-06-23T13:01:41.009Z,2.40
2018-06-23T13:06:35.538Z,2.80
2018-06-23T13:11:30.272Z,2.90
2018-06-23T13:16:25.061Z,2.70
2018-06-23T13:21:19.722Z,3.37
2018-06-23T13:26:14.192Z,2.90
2018-06-23T13:31:09.018Z,2.40
2018-06-23T13:36:03.700Z,3.20
2018-06-23T13:41:01.824Z,2.67
2018-06-23T13:45:56.414Z,2.80
2018-06-23T13:50:51.372Z,2.67
2018-06-23T13:55:45.626Z,2.30
2018-06-23T14:00:40.560Z,2.93
2018-06-23T14:05:35.591Z,2.40
2018-06-23T14:10:30.110Z,2.50
2018-06-23T14:15:24.504Z,2.63
2018-06-23T14:20:19.492Z,2.33
2018-06-23T14:25:14.259Z,2.30
2018-06-23T14:30:08.888Z,2.30
2018-06-23T14:35:03.368Z,2.20
2018-06-23T14:39:57.868Z,2.70
2018-06-23T14:44:53.062Z,2.47
2018-06-23T14:49:47.705Z,3.10
2018-06-23T14:54:42.652Z,2.90
2018-06-23T14:59:37.694Z,2.40
2018-06-23T15:04:32.914Z,3.30
2018-06-23T15:09:44.427Z,2.70
2018-06-23T15:14:39.216Z,2.33
2018-06-23T15:19:34.060Z,2.37
2018-06-23T15:24:29.144Z,2.70
2018-06-23T15:29:23.751Z,2.70
2018-06-23T15:34:18.813Z,3.17
2018-06-23T15:39:13.580Z,3.00
2018-06-23T15:44:08.037Z,2.47
2018-06-23T15:49:02.703Z,2.90
2018-06-23T15:53:57.853Z,2.17
2018-06-23T15:58:52.378Z,2.60
2018-06-23T16:03:46.880Z,2.57
2018-06-23T16:08:41.744Z,2.37
2018-06-23T16:13:36.413Z,2.50
2018-06-23T16:18:31.163Z,2.30
2018-06-23T16:23:25.870Z,2.30
2018-06-23T16:28:20.682Z,1.97
2018-06-23T16:33:15.299Z,2.10
2018-06-23T16:38:09.873Z,2.20
2018-06-23T16:43:04.638Z,2.30
2018-06-23T16:47:59.064Z,2.13
2018-06-23T16:52:53.874Z,2.20
2018-06-23T16:57:48.439Z,2.50
2018-06-23T17:02:43.145Z,2.23
2018-06-23T17:07:37.920Z,2.37
2018-06-23T17:12:32.595Z,3.13
2018-06-23T17:17:41.621Z,2.50
2018-06-23T17:22:36.597Z,2.63
2018-06-23T17:27:30.987Z,2.83
2018-06-23T17:32:25.720Z,2.90
2018-06-23T17:37:20.353Z,3.00
2018-06-23T17:42:14.838Z,3.50
2018-06-23T17:47:09.638Z,3.20
2018-06-23T17:52:04.242Z,2.70
2018-06-23T17:57:07.809Z,3.30
2018-06-23T18:02:13.828Z,2.77
2018-06-23T18:07:08.758Z,2.90
2018-06-23T18:12:03.639Z,3.10
2018-06-23T18:16:58.283Z,2.60
2018-06-23T18:21:53.039Z,3.03
2018-06-23T18:26:47.648Z,3.03
2018-06-23T18:31:42.298Z,3.10
2018-06-23T18:36:37.148Z,2.80
2018-06-23T18:41:33.412Z,2.90
2018-06-23T18:46:29.955Z,2.60
2018-06-23T18:51:25.848Z,2.73
2018-06-23T18:56:20.331Z,2.70
2018-06-23T19:01:16.146Z,2.40
2018-06-23T19:06:13.669Z,3.07
2018-06-23T19:11:08.873Z,3.00
2018-06-23T19:16:03.427Z,2.70
2018-06-23T19:20:58.465Z,2.97
2018-06-23T19:25:53.692Z,2.90
2018-06-23T19:30:50.465Z,3.13
2018-06-23T19:35:45.048Z,3.00
2018-06-23T19:40:39.583Z,2.80
2018-06-23T19:45:34.330Z,2.97
2018-06-23T19:50:28.944Z,2.80
2018-06-23T19:55:23.828Z,3.43
2018-06-23T20:00:18.328Z,3.70
2018-06-23T20:05:12.800Z,3.40
2018-06-23T20:10:07.531Z,3.70
2018-06-23T20:15:02.318Z,4.20
2018-06-23T20:19:56.846Z,3.90
2018-06-23T20:24:51.551Z,4.00
2018-06-23T20:29:46.189Z,4.53
2018-06-23T20:34:40.910Z,4.70
2018-06-23T20:39:35.408Z,4.50
2018-06-23T20:44:29.908Z,4.33
2018-06-23T20:49:24.443Z,4.87
2018-06-23T20:54:19.354Z,4.53
2018-06-23T20:59:14.046Z,6.27
2018-06-23T21:04:08.728Z,5.70
2018-06-23T21:09:03.226Z,5.60
2018-06-23T21:13:57.774Z,5.03
2018-06-23T21:18:52.402Z,5.93
2018-06-23T21:23:46.887Z,5.03
2018-06-23T21:28:41.651Z,4.90
2018-06-23T21:33:36.211Z,5.17
2018-06-23T21:38:30.693Z,4.73
2018-06-23T21:43:25.372Z,4.80
2018-06-23T21:48:20.894Z,4.63
2018-06-23T21:53:15.741Z,4.53
2018-06-23T21:58:12.413Z,5.23
2018-06-23T22:03:08.384Z,4.57
2018-06-23T22:08:02.842Z,5.03
2018-06-23T22:12:57.496Z,5.30
2018-06-23T22:17:56.481Z,5.83
2018-06-23T22:23:01.899Z,5.67
2018-06-23T22:27:58.599Z,4.97
2018-06-23T22:33:01.065Z,5.87
2018-06-23T22:37:55.995Z,5.67
2018-06-23T22:42:50.499Z,5.40
2018-06-23T22:47:44.998Z,5.53
2018-06-23T22:52:39.756Z,5.70
2018-06-23T22:57:34.221Z,5.23
2018-06-23T23:02:28.736Z,5.67
2018-06-23T23:07:23.774Z,5.20
2018-06-23T23:12:18.354Z,5.93
2018-06-23T23:17:13.034Z,5.70
2018-06-23T23:22:07.620Z,5.70
2018-06-23T23:27:02.459Z,5.93
2018-06-23T23:31:57.811Z,5.20
2018-06-23T23:36:52.598Z,5.97
2018-06-23T23:41:50.481Z,6.47
2018-06-23T23:46:45.182Z,7.33
2018-06-23T23:51:40.238Z,6.73
2018-06-23T23:56:35.042Z,6.80
